createdAt,value
2023-02-12T00:01:12.843Z,8.20
2023-02-12T00:03:40.308Z,8.20
2023-02-12T00:06:08.663Z,8.20
2023-02-12T00:08:36.136Z,8.10
2023-02-12T00:11:14.880Z,8.10
2023-02-12T00:13:41.953Z,8.00
2023-02-12T00:16:14.413Z,8.10
2023-02-12T00:18:41.075Z,8.10
2023-02-12T00:21:11.023Z,8.10
2023-02-12T00:23:38.844Z,8.10
2023-02-12T00:26:07.751Z,8.10
2023-02-12T00:28:34.682Z,8.10
2023-02-12T00:31:13.609Z,8.20
2023-02-12T00:33:40.327Z,8.10
2023-02-12T00:36:08.543Z,8.20
2023-02-12T00:38:35.459Z,8.20
2023-02-12T00:41:03.226Z,8.20
2023-02-12T00:43:29.825Z,8.20
2023-02-12T00:45:56.965Z,8.20
2023-02-12T00:48:23.755Z,8.30
2023-02-12T00:50:50.629Z,8.30
2023-02-12T00:53:17.614Z,8.30
2023-02-12T00:55:44.313Z,8.30
2023-02-12T00:58:11.431Z,8.30
2023-02-12T01:00:38.760Z,8.40
2023-02-12T01:03:05.608Z,8.40
2023-02-12T01:05:33.102Z,8.40
2023-02-12T01:08:00.111Z,8.40
2023-02-12T01:10:27.649Z,8.30
2023-02-12T01:12:54.854Z,8.30
2023-02-12T01:15:22.102Z,8.30
2023-02-12T01:17:52.138Z,8.40
2023-02-12T01:20:20.534Z,8.40
2023-02-12T01:22:47.537Z,8.40
2023-02-12T01:25:14.290Z,8.30
2023-02-12T01:27:41.304Z,8.30
2023-02-12T01:30:11.794Z,8.30
2023-02-12T01:32:38.899Z,8.20
2023-02-12T01:35:06.124Z,8.20
2023-02-12T01:37:36.048Z,8.20
2023-02-12T01:40:03.738Z,8.20
2023-02-12T01:42:30.388Z,8.30
2023-02-12T01:45:15.052Z,8.20
2023-02-12T01:47:43.945Z,8.20
2023-02-12T01:50:19.065Z,8.10
2023-02-12T01:52:53.857Z,8.10
2023-02-12T01:55:21.399Z,8.00
2023-02-12T01:57:50.396Z,8.00
2023-02-12T02:00:23.542Z,8.00
2023-02-12T02:02:56.632Z,8.10
2023-02-12T02:05:30.949Z,8.00
2023-02-12T02:07:57.634Z,8.10
2023-02-12T02:10:25.830Z,8.10
2023-02-12T02:13:12.787Z,8.10
2023-02-12T02:15:41.476Z,8.20
2023-02-12T02:18:16.374Z,8.30
2023-02-12T02:21:10.694Z,8.20
2023-02-12T02:24:05.709Z,8.20
2023-02-12T02:26:59.970Z,8.30
2023-02-12T02:30:03.283Z,8.30
2023-02-12T02:32:34.605Z,8.20
2023-02-12T02:35:20.277Z,8.20
2023-02-12T02:38:21.119Z,8.20
2023-02-12T02:41:07.009Z,8.20
2023-02-12T02:43:40.675Z,8.20
2023-02-12T02:46:16.155Z,8.10
2023-02-12T02:48:53.347Z,8.20
2023-02-12T02:51:29.319Z,8.10
2023-02-12T02:54:04.900Z,8.20
2023-02-12T02:56:35.130Z,8.10
2023-02-12T02:59:06.700Z,8.10
2023-02-12T03:01:40.365Z,8.00
2023-02-12T03:04:09.939Z,8.00
2023-02-12T03:06:52.364Z,8.10
2023-02-12T03:09:22.920Z,8.00
2023-02-12T03:11:50.887Z,8.00
2023-02-12T03:14:25.982Z,8.00
2023-02-12T03:16:57.381Z,8.00
2023-02-12T03:19:29.428Z,8.00
2023-02-12T03:22:01.169Z,8.00
2023-02-12T03:25:09.537Z,8.00
2023-02-12T03:27:45.318Z,8.10
2023-02-12T03:30:12.536Z,8.10
2023-02-12T03:33:06.367Z,8.10
2023-02-12T03:35:41.150Z,8.10
2023-02-12T03:38:26.536Z,8.10
2023-02-12T03:41:08.970Z,8.00
2023-02-12T03:43:50.453Z,8.00
2023-02-12T03:47:02.119Z,8.10
2023-02-12T03:50:10.005Z,8.00
2023-02-12T03:52:36.807Z,8.00
2023-02-12T03:55:05.433Z,8.00
2023-02-12T03:57:39.231Z,8.00
2023-02-12T04:00:10.337Z,8.00
2023-02-12T04:02:43.321Z,7.90
2023-02-12T04:05:21.185Z,7.90
2023-02-12T04:07:48.996Z,7.90
2023-02-12T04:10:17.010Z,8.00
2023-02-12T04:13:09.607Z,7.90
2023-02-12T04:15:42.195Z,8.00
2023-02-12T04:18:25.213Z,7.90
2023-02-12T04:20:57.772Z,7.80
2023-02-12T04:23:56.741Z,7.80
2023-02-12T04:26:28.169Z,7.70
2023-02-12T04:28:59.604Z,7.70
2023-02-12T04:31:39.629Z,7.60
2023-02-12T04:34:17.785Z,7.60
2023-02-12T04:37:15.738Z,7.70
2023-02-12T04:39:43.929Z,7.70
2023-02-12T04:42:10.915Z,7.70
2023-02-12T04:44:42.816Z,7.70
2023-02-12T04:47:14.739Z,7.70
2023-02-12T04:49:41.592Z,7.70
2023-02-12T04:52:08.662Z,7.70
2023-02-12T04:54:35.675Z,7.70
2023-02-12T04:57:02.430Z,7.70
2023-02-12T04:59:29.007Z,7.70
2023-02-12T05:01:55.637Z,7.70
2023-02-12T05:04:22.238Z,7.60
2023-02-12T05:06:48.842Z,7.70
2023-02-12T05:09:20.109Z,7.70
2023-02-12T05:11:46.736Z,7.70
2023-02-12T05:14:13.852Z,7.80
2023-02-12T05:16:40.514Z,7.80
2023-02-12T05:19:09.332Z,7.90
2023-02-12T05:21:37.464Z,7.90
2023-02-12T05:24:04.606Z,7.90
2023-02-12T05:26:31.238Z,7.90
2023-02-12T05:28:57.956Z,7.90
2023-02-12T05:31:24.782Z,7.90
2023-02-12T05:33:51.665Z,8.00
2023-02-12T05:36:20.940Z,8.00
2023-02-12T05:38:48.692Z,8.00
2023-02-12T05:41:17.609Z,8.00
2023-02-12T05:43:45.612Z,8.00
2023-02-12T05:46:14.041Z,8.00
2023-02-12T05:48:41.182Z,8.00
2023-02-12T05:51:11.997Z,8.00
2023-02-12T05:53:39.864Z,8.00
2023-02-12T05:56:27.638Z,8.00
2023-02-12T05:59:12.159Z,8.00
2023-02-12T06:01:41.599Z,8.00
2023-02-12T06:04:12.994Z,8.00
2023-02-12T06:06:42.077Z,8.00
2023-02-12T06:09:10.258Z,8.00
2023-02-12T06:11:37.344Z,8.10
2023-02-12T06:14:05.169Z,8.00
2023-02-12T06:16:32.534Z,8.00
2023-02-12T06:19:02.172Z,8.00
2023-02-12T06:21:29.379Z,8.10
2023-02-12T06:23:56.363Z,8.10
2023-02-12T06:26:24.370Z,8.10
2023-02-12T06:28:51.627Z,8.00
2023-02-12T06:31:24.485Z,8.10
2023-02-12T06:33:52.306Z,8.10
2023-02-12T06:36:19.406Z,8.00
2023-02-12T06:38:46.447Z,8.00
2023-02-12T06:41:13.482Z,8.00
2023-02-12T06:43:40.154Z,8.00
2023-02-12T06:46:07.263Z,8.00
2023-02-12T06:48:34.220Z,8.00
2023-02-12T06:51:12.072Z,8.00
2023-02-12T06:53:38.731Z,8.00
2023-02-12T06:56:07.206Z,8.00
2023-02-12T06:58:33.894Z,8.10
2023-02-12T07:01:30.354Z,8.00
2023-02-12T07:03:59.371Z,8.00
2023-02-12T07:06:27.284Z,8.10
2023-02-12T07:08:55.080Z,8.00
2023-02-12T07:11:26.361Z,8.00
2023-02-12T07:13:53.133Z,8.00
2023-02-12T07:16:19.883Z,8.00
2023-02-12T07:18:46.591Z,7.90
2023-02-12T07:21:14.679Z,7.80
2023-02-12T07:23:41.857Z,7.80
2023-02-12T07:26:12.014Z,7.80
2023-02-12T07:28:39.407Z,7.70
2023-02-12T07:31:08.799Z,7.70
2023-02-12T07:33:36.467Z,7.70
2023-02-12T07:36:05.280Z,7.70
2023-02-12T07:38:32.197Z,7.70
2023-02-12T07:41:21.504Z,7.70
2023-02-12T07:43:49.720Z,7.70
2023-02-12T07:46:29.544Z,7.80
2023-02-12T07:48:58.465Z,7.80
2023-02-12T07:51:26.404Z,7.80
2023-02-12T07:53:53.179Z,7.80
2023-02-12T07:56:23.151Z,7.70
2023-02-12T07:58:52.795Z,7.70
2023-02-12T08:01:24.366Z,7.70
2023-02-12T08:03:57.973Z,7.70
2023-02-12T08:06:27.179Z,7.70
2023-02-12T08:08:56.062Z,7.80
2023-02-12T08:11:24.084Z,7.70
2023-02-12T08:13:51.178Z,7.70
2023-02-12T08:16:23.271Z,7.70
2023-02-12T08:18:49.972Z,7.80
2023-02-12T08:21:19.414Z,7.80
2023-02-12T08:23:46.834Z,7.80
2023-02-12T08:26:16.194Z,7.90
2023-02-12T08:28:55.230Z,7.90
2023-02-12T08:31:24.809Z,7.90
2023-02-12T08:33:53.189Z,8.00
2023-02-12T08:36:25.029Z,8.00
2023-02-12T08:38:52.409Z,8.00
2023-02-12T08:41:21.794Z,8.10
2023-02-12T08:43:49.371Z,8.00
2023-02-12T08:46:22.652Z,8.10
2023-02-12T08:48:51.678Z,8.20
2023-02-12T08:51:20.813Z,8.20
2023-02-12T08:53:51.176Z,8.20
2023-02-12T08:56:19.023Z,8.30
2023-02-12T08:58:45.810Z,8.30
2023-02-12T09:01:16.034Z,8.30
2023-02-12T09:03:43.605Z,8.40
2023-02-12T09:06:10.462Z,8.30
2023-02-12T09:08:38.534Z,8.30
2023-02-12T09:11:07.183Z,8.40
2023-02-12T09:13:34.668Z,8.40
2023-02-12T09:16:02.829Z,8.40
2023-02-12T09:18:29.954Z,8.50
2023-02-12T09:21:02.565Z,8.50
2023-02-12T09:23:29.295Z,8.40
2023-02-12T09:25:56.138Z,8.50
2023-02-12T09:28:22.968Z,8.60
2023-02-12T09:30:50.104Z,8.60
2023-02-12T09:33:16.760Z,8.90
2023-02-12T09:35:43.369Z,8.70
2023-02-12T09:38:10.181Z,8.80
2023-02-12T09:40:57.009Z,8.90
2023-02-12T09:43:40.109Z,8.90
2023-02-12T09:46:31.760Z,9.00
2023-02-12T09:49:12.229Z,9.10
2023-02-12T09:51:42.221Z,9.10
2023-02-12T09:54:19.402Z,9.20
2023-02-12T09:56:56.410Z,9.10
2023-02-12T09:59:37.679Z,9.20
2023-02-12T10:02:14.748Z,9.20
2023-02-12T10:04:58.713Z,9.20
2023-02-12T10:07:53.433Z,9.20
2023-02-12T10:10:40.906Z,9.30
2023-02-12T10:13:38.010Z,9.30
2023-02-12T10:16:20.727Z,9.30
2023-02-12T10:19:08.838Z,9.40
2023-02-12T10:21:56.866Z,9.40
2023-02-12T10:24:26.177Z,9.50
2023-02-12T10:26:59.971Z,9.60
2023-02-12T10:29:31.768Z,9.70
2023-02-12T10:32:21.465Z,9.60
2023-02-12T10:34:50.570Z,9.70
2023-02-12T10:37:32.406Z,9.70
2023-02-12T10:40:04.740Z,9.70
2023-02-12T10:42:44.761Z,9.70
2023-02-12T10:45:17.441Z,9.70
2023-02-12T10:47:45.918Z,9.80
2023-02-12T10:50:32.342Z,9.90
2023-02-12T10:53:03.438Z,9.90
2023-02-12T10:55:35.711Z,9.90
2023-02-12T10:58:04.352Z,9.90
2023-02-12T11:00:36.538Z,9.90
2023-02-12T11:03:12.334Z,9.90
2023-02-12T11:05:44.142Z,9.90
2023-02-12T11:08:33.964Z,9.90
2023-02-12T11:11:10.287Z,9.90
2023-02-12T11:13:39.459Z,10.00
2023-02-12T11:16:06.631Z,10.00
2023-02-12T11:18:34.010Z,10.10
2023-02-12T11:21:09.915Z,10.10
2023-02-12T11:26:18.446Z,10.20
2023-02-12T11:29:00.477Z,10.10
2023-02-12T11:31:32.281Z,10.10
2023-02-12T11:34:22.164Z,10.10
2023-02-12T11:36:51.900Z,10.10
2023-02-12T11:39:21.726Z,10.10
2023-02-12T11:41:54.785Z,10.10
2023-02-12T11:44:27.113Z,10.00
2023-02-12T11:47:02.086Z,10.00
2023-02-12T11:49:32.531Z,10.00
2023-02-12T11:52:02.399Z,10.00
2023-02-12T11:54:35.836Z,10.00
2023-02-12T11:59:36.618Z,10.00
2023-02-12T12:02:33.343Z,10.00
2023-02-12T12:05:09.386Z,10.00
2023-02-12T12:07:38.938Z,10.10
2023-02-12T12:10:13.168Z,10.10
2023-02-12T12:12:49.347Z,10.10
2023-02-12T12:15:51.745Z,10.30
2023-02-12T12:18:52.624Z,10.30
2023-02-12T12:21:24.581Z,10.40
2023-02-12T12:23:58.552Z,10.30
2023-02-12T12:26:28.284Z,10.30
2023-02-12T12:29:20.276Z,10.30
2023-02-12T12:31:56.048Z,10.30
2023-02-12T12:34:25.125Z,10.30
2023-02-12T12:37:12.524Z,10.30
2023-02-12T12:40:00.152Z,10.30
2023-02-12T12:42:49.583Z,10.30
2023-02-12T12:45:51.717Z,10.30
2023-02-12T12:48:33.894Z,10.20
2023-02-12T12:51:28.049Z,10.20
2023-02-12T12:54:37.068Z,10.00
2023-02-12T12:57:17.373Z,10.00
2023-02-12T13:00:14.800Z,10.00
2023-02-12T13:03:05.183Z,10.00
2023-02-12T13:05:51.832Z,10.00
2023-02-12T13:09:06.428Z,10.00
2023-02-12T13:11:56.233Z,10.00
2023-02-12T13:15:05.803Z,10.00
2023-02-12T13:17:45.893Z,10.00
2023-02-12T13:20:41.184Z,10.10
2023-02-12T13:26:07.008Z,10.10
2023-02-12T13:28:53.983Z,10.10
2023-02-12T13:31:33.006Z,10.10
2023-02-12T13:34:06.923Z,10.10
2023-02-12T13:36:36.732Z,10.20
2023-02-12T13:39:34.183Z,10.20
2023-02-12T13:42:09.924Z,10.30
2023-02-12T13:45:20.509Z,10.30
2023-02-12T13:48:08.662Z,10.40
2023-02-12T13:51:09.649Z,10.40
2023-02-12T13:53:59.042Z,10.40
2023-02-12T13:56:50.115Z,10.40
2023-02-12T13:59:32.053Z,10.30
2023-02-12T14:01:59.368Z,10.30
2023-02-12T14:04:40.628Z,10.40
2023-02-12T14:07:10.015Z,10.40
2023-02-12T14:09:46.275Z,10.40
2023-02-12T14:12:31.741Z,10.40
2023-02-12T14:15:11.132Z,10.40
2023-02-12T14:17:37.685Z,10.40
2023-02-12T14:20:38.031Z,10.40
2023-02-12T14:23:28.904Z,10.30
2023-02-12T14:26:03.325Z,10.30
2023-02-12T14:31:18.665Z,10.30
2023-02-12T14:33:53.376Z,10.40
2023-02-12T14:41:37.747Z,10.40
2023-02-12T14:44:37.523Z,13.20
2023-02-12T14:47:17.158Z,10.30
2023-02-12T14:49:51.903Z,10.30
2023-02-12T14:52:25.051Z,10.40
2023-02-12T14:54:56.815Z,10.40
2023-02-12T14:57:35.941Z,10.40
2023-02-12T15:00:17.940Z,10.30
2023-02-12T15:02:58.316Z,10.40
2023-02-12T15:05:30.373Z,10.40
2023-02-12T15:08:06.706Z,10.40
2023-02-12T15:10:42.763Z,10.40
2023-02-12T15:13:49.040Z,10.40
2023-02-12T15:16:39.080Z,10.40
2023-02-12T15:19:24.287Z,10.40
2023-02-12T15:21:54.364Z,6.80
2023-02-12T15:24:23.909Z,10.40
2023-02-12T15:26:53.344Z,10.40
2023-02-12T15:29:30.181Z,10.40
2023-02-12T15:31:59.498Z,10.40
2023-02-12T15:34:31.797Z,10.40
2023-02-12T15:37:00.866Z,10.40
2023-02-12T15:39:32.325Z,10.30
2023-02-12T15:44:32.522Z,10.40
2023-02-12T15:47:08.157Z,10.30
2023-02-12T15:49:37.003Z,10.30
2023-02-12T15:52:11.151Z,10.30
2023-02-12T15:54:39.055Z,10.20
2023-02-12T15:57:19.231Z,10.30
2023-02-12T15:59:54.290Z,10.30
2023-02-12T16:02:30.532Z,10.30
2023-02-12T16:04:58.327Z,10.40
2023-02-12T16:07:36.858Z,10.30
2023-02-12T16:10:05.133Z,10.20
2023-02-12T16:12:34.389Z,10.20
2023-02-12T16:15:01.670Z,10.10
2023-02-12T16:17:32.018Z,10.10
2023-02-12T16:20:20.199Z,10.10
2023-02-12T16:22:48.914Z,10.10
2023-02-12T16:25:20.107Z,10.10
2023-02-12T16:28:00.722Z,10.10
2023-02-12T16:30:39.263Z,10.10
2023-02-12T16:33:35.699Z,10.10
2023-02-12T16:36:05.095Z,10.00
2023-02-12T16:38:42.348Z,10.00
2023-02-12T16:41:18.001Z,9.90
2023-02-12T16:43:45.825Z,9.90
2023-02-12T16:46:13.860Z,9.80
2023-02-12T16:48:49.233Z,9.70
2023-02-12T16:51:33.805Z,9.70
2023-02-12T16:54:02.325Z,9.70
2023-02-12T16:56:34.283Z,9.70
2023-02-12T16:59:02.068Z,9.80
2023-02-12T17:01:33.487Z,9.80
2023-02-12T17:04:04.078Z,9.80
2023-02-12T17:06:32.195Z,9.80
2023-02-12T17:08:58.857Z,9.80
2023-02-12T17:11:26.808Z,9.80
2023-02-12T17:13:54.894Z,9.80
2023-02-12T17:16:31.167Z,9.80
2023-02-12T17:18:59.662Z,9.80
2023-02-12T17:21:30.486Z,9.90
2023-02-12T17:23:57.273Z,9.80
2023-02-12T17:26:24.801Z,9.80
2023-02-12T17:28:51.490Z,9.80
2023-02-12T17:31:19.570Z,9.80
2023-02-12T17:33:46.419Z,9.80
2023-02-12T17:36:13.044Z,9.70
2023-02-12T17:38:39.845Z,9.70
2023-02-12T17:41:12.311Z,9.70
2023-02-12T17:46:19.871Z,9.70
2023-02-12T17:48:46.603Z,9.70
2023-02-12T17:51:13.533Z,9.80
2023-02-12T17:53:41.297Z,9.70
2023-02-12T17:56:14.255Z,9.70
2023-02-12T17:58:42.502Z,9.70
2023-02-12T18:01:11.769Z,9.70
2023-02-12T18:03:38.909Z,9.70
2023-02-12T18:08:33.911Z,9.70
2023-02-12T18:11:05.959Z,9.70
2023-02-12T18:15:59.604Z,9.60
2023-02-12T18:20:53.216Z,9.60
2023-02-12T18:23:19.870Z,9.60
2023-02-12T18:25:46.481Z,9.60
2023-02-12T18:28:13.111Z,9.60
2023-02-12T18:30:42.671Z,9.70
2023-02-12T18:33:10.790Z,9.70
2023-02-12T18:35:37.483Z,9.60
2023-02-12T18:38:04.133Z,9.60
2023-02-12T18:42:57.761Z,9.60
2023-02-12T18:45:24.381Z,9.60
2023-02-12T18:50:18.152Z,9.60
2023-02-12T18:52:45.648Z,9.60
2023-02-12T18:55:12.254Z,9.60
2023-02-12T18:57:38.830Z,9.60
2023-02-12T19:00:06.204Z,9.50
2023-02-12T19:05:00.084Z,9.50
2023-02-12T19:09:54.060Z,9.50
2023-02-12T19:12:20.746Z,9.50
2023-02-12T19:14:47.414Z,9.50
2023-02-12T19:19:41.164Z,9.50
2023-02-12T19:22:07.925Z,9.50
2023-02-12T19:32:07.376Z,9.50
2023-02-12T19:34:34.053Z,9.50
2023-02-12T19:39:27.792Z,9.50
2023-02-12T19:41:56.043Z,9.40
2023-02-12T19:44:24.891Z,9.50
2023-02-12T19:46:52.447Z,9.50
2023-02-12T19:49:22.091Z,9.50
2023-02-12T19:51:49.235Z,9.40
2023-02-12T19:54:17.615Z,9.40
2023-02-12T19:56:44.726Z,9.40
2023-02-12T19:59:17.246Z,9.40
2023-02-12T20:01:44.731Z,9.40
2023-02-12T20:04:12.895Z,9.40
2023-02-12T20:06:40.601Z,9.40
2023-02-12T20:09:08.136Z,9.30
2023-02-12T20:11:38.347Z,9.30
2023-02-12T20:14:08.833Z,9.30
2023-02-12T20:16:38.854Z,9.30
2023-02-12T20:19:15.043Z,9.30
2023-02-12T20:24:08.924Z,9.30
2023-02-12T20:26:36.073Z,9.30
2023-02-12T20:31:35.804Z,9.20
2023-02-12T20:34:05.447Z,7.80
2023-02-12T20:36:35.078Z,9.20
2023-02-12T20:39:01.948Z,9.30
2023-02-12T20:46:24.998Z,9.20
2023-02-12T20:51:22.952Z,9.20
2023-02-12T20:53:50.468Z,9.20
2023-02-12T20:56:23.314Z,9.20
2023-02-12T20:58:50.456Z,9.20
2023-02-12T21:01:26.401Z,9.20
2023-02-12T21:03:54.872Z,9.20
2023-02-12T21:06:22.946Z,9.20
2023-02-12T21:08:51.158Z,9.20
2023-02-12T21:11:21.170Z,9.20
2023-02-12T21:14:02.325Z,9.20
2023-02-12T21:16:40.776Z,9.10
2023-02-12T21:19:08.439Z,9.10
2023-02-12T21:21:37.612Z,9.10
2023-02-12T21:24:06.791Z,9.00
2023-02-12T21:29:02.039Z,9.00
2023-02-12T21:31:34.725Z,9.00
2023-02-12T21:34:02.675Z,9.00
2023-02-12T21:36:32.053Z,9.00
2023-02-12T21:41:37.237Z,9.00
2023-02-12T21:44:22.932Z,9.00
2023-02-12T21:46:49.722Z,9.10
2023-02-12T21:49:24.559Z,9.00
2023-02-12T21:51:53.532Z,9.10
2023-02-12T21:54:21.074Z,9.00
2023-02-12T21:56:49.176Z,9.00
2023-02-12T21:59:17.228Z,9.00
2023-02-12T22:01:47.612Z,9.00
2023-02-12T22:06:45.882Z,9.00
2023-02-12T22:09:14.396Z,9.00
2023-02-12T22:11:41.701Z,9.00
2023-02-12T22:14:11.867Z,9.00
2023-02-12T22:16:38.547Z,8.90
2023-02-12T22:19:05.704Z,8.90
2023-02-12T22:21:35.239Z,8.90
2023-02-12T22:24:04.364Z,8.90
2023-02-12T22:26:32.235Z,8.80
2023-02-12T22:29:07.645Z,8.80
2023-02-12T22:31:36.691Z,8.80
2023-02-12T22:34:06.356Z,8.80
2023-02-12T22:36:35.814Z,8.80
2023-02-12T22:41:29.797Z,8.70
2023-02-12T22:44:00.033Z,8.60
2023-02-12T22:46:27.443Z,8.70
2023-02-12T22:51:23.830Z,8.70
2023-02-12T22:53:51.032Z,8.70
2023-02-12T22:56:18.664Z,8.70
2023-02-12T23:01:15.192Z,8.70
2023-02-12T23:06:12.688Z,8.70
2023-02-12T23:11:08.331Z,8.70
2023-02-12T23:13:36.222Z,8.70
2023-02-12T23:16:03.562Z,8.70
2023-02-12T23:18:30.860Z,8.70
2023-02-12T23:20:58.042Z,8.80
2023-02-12T23:23:25.016Z,8.80
2023-02-12T23:28:21.551Z,8.90
2023-02-12T23:30:49.239Z,8.90
2023-02-12T23:35:44.774Z,8.90
2023-02-12T23:38:11.864Z,8.90
2023-02-12T23:43:05.581Z,8.90
2023-02-12T23:45:32.308Z,8.90
2023-02-12T23:57:49.609Z,8.90
